createdAt,value
2023-02-27T00:01:07.042Z,85.20
2023-02-27T00:03:08.481Z,84.94
2023-02-27T00:05:10.930Z,85.32
2023-02-27T00:07:12.878Z,85.19
2023-02-27T00:09:14.366Z,84.92
2023-02-27T00:11:15.885Z,85.02
2023-02-27T00:13:17.451Z,84.77
2023-02-27T00:15:20.362Z,85.04
2023-02-27T00:17:21.898Z,84.91
2023-02-27T00:19:23.749Z,85.25
2023-02-27T00:21:25.700Z,85.29
2023-02-27T00:23:28.056Z,85.27
2023-02-27T00:25:29.524Z,85.19
2023-02-27T00:27:32.637Z,85.10
2023-02-27T00:29:34.080Z,85.01
2023-02-27T00:31:35.727Z,85.11
2023-02-27T00:33:37.216Z,84.81
2023-02-27T00:35:38.671Z,84.95
2023-02-27T00:37:40.674Z,85.03
2023-02-27T00:39:42.222Z,85.16
2023-02-27T00:41:43.673Z,84.50
2023-02-27T00:43:45.248Z,84.42
2023-02-27T00:45:48.369Z,84.70
2023-02-27T00:47:49.864Z,84.34
2023-02-27T00:49:51.359Z,84.87
2023-02-27T00:51:53.422Z,84.67
2023-02-27T00:53:54.870Z,84.52
2023-02-27T00:55:56.368Z,84.65
2023-02-27T00:57:57.808Z,84.81
2023-02-27T00:59:59.351Z,84.56
2023-02-27T01:02:00.867Z,84.75
2023-02-27T01:04:02.508Z,84.20
2023-02-27T01:06:04.185Z,84.67
2023-02-27T01:08:05.704Z,84.54
2023-02-27T01:10:08.838Z,84.63
2023-02-27T01:12:10.385Z,84.43
2023-02-27T01:14:11.877Z,84.16
2023-02-27T01:16:14.467Z,84.35
2023-02-27T01:18:15.992Z,84.18
2023-02-27T01:20:17.946Z,84.18
2023-02-27T01:22:19.392Z,84.51
2023-02-27T01:24:21.925Z,84.59
2023-02-27T01:26:23.421Z,84.41
2023-02-27T01:28:25.050Z,84.65
2023-02-27T01:30:27.110Z,84.70
2023-02-27T01:32:28.763Z,84.77
2023-02-27T01:34:31.120Z,84.30
2023-02-27T01:36:33.656Z,84.57
2023-02-27T01:38:35.237Z,84.37
2023-02-27T01:40:38.350Z,84.16
2023-02-27T01:42:39.810Z,84.03
2023-02-27T01:45:20.024Z,84.06
2023-02-27T01:47:21.484Z,84.12
2023-02-27T01:49:32.431Z,84.05
2023-02-27T01:51:38.042Z,84.42
2023-02-27T01:53:41.161Z,84.18
2023-02-27T01:55:43.420Z,84.13
2023-02-27T01:57:46.420Z,84.66
2023-02-27T01:59:47.931Z,84.65
2023-02-27T02:01:50.810Z,84.10
2023-02-27T02:04:10.288Z,83.93
2023-02-27T02:06:12.471Z,84.01
2023-02-27T02:08:18.241Z,84.07
2023-02-27T02:10:21.526Z,84.49
2023-02-27T02:12:27.872Z,84.49
2023-02-27T02:14:29.342Z,84.21
2023-02-27T02:16:59.552Z,84.23
2023-02-27T02:19:43.281Z,84.26
2023-02-27T02:21:44.671Z,84.35
2023-02-27T02:24:23.942Z,84.10
2023-02-27T02:27:03.838Z,83.79
2023-02-27T02:29:34.634Z,84.21
2023-02-27T02:32:14.996Z,84.18
2023-02-27T02:34:25.751Z,84.36
2023-02-27T02:36:51.157Z,84.29
2023-02-27T02:39:10.766Z,84.43
2023-02-27T02:41:22.778Z,83.63
2023-02-27T02:44:02.952Z,83.72
2023-02-27T02:46:50.781Z,83.79
2023-02-27T02:49:11.036Z,83.87
2023-02-27T02:51:44.423Z,83.63
2023-02-27T02:53:58.307Z,83.98
2023-02-27T02:56:14.297Z,83.69
2023-02-27T02:58:32.679Z,84.02
2023-02-27T03:00:43.933Z,83.69
2023-02-27T03:03:11.550Z,83.79
2023-02-27T03:05:24.613Z,83.76
2023-02-27T03:07:32.904Z,83.53
2023-02-27T03:09:41.388Z,83.52
2023-02-27T03:11:47.430Z,83.80
2023-02-27T03:13:55.100Z,83.98
2023-02-27T03:16:07.866Z,84.14
2023-02-27T03:18:34.853Z,83.99
2023-02-27T03:20:47.205Z,83.85
2023-02-27T03:22:55.279Z,83.52
2023-02-27T03:25:00.384Z,83.48
2023-02-27T03:27:03.958Z,83.68
2023-02-27T03:29:11.546Z,83.84
2023-02-27T03:31:23.302Z,83.26
2023-02-27T03:33:31.219Z,83.55
2023-02-27T03:36:17.162Z,83.84
2023-02-27T03:38:31.112Z,83.87
2023-02-27T03:40:51.719Z,83.50
2023-02-27T03:43:06.001Z,83.74
2023-02-27T03:45:18.764Z,83.58
2023-02-27T03:47:20.841Z,83.57
2023-02-27T03:49:22.836Z,83.40
2023-02-27T03:51:27.975Z,83.45
2023-02-27T03:53:41.575Z,84.08
2023-02-27T03:55:47.620Z,83.98
2023-02-27T03:57:51.802Z,83.95
2023-02-27T03:59:53.384Z,83.96
2023-02-27T04:01:57.023Z,83.64
2023-02-27T04:04:04.924Z,83.84
2023-02-27T04:06:26.849Z,83.50
2023-02-27T04:08:53.087Z,84.16
2023-02-27T04:11:01.817Z,83.82
2023-02-27T04:13:25.869Z,84.20
2023-02-27T04:15:46.413Z,83.63
2023-02-27T04:18:04.174Z,83.72
2023-02-27T04:20:21.044Z,83.84
2023-02-27T04:22:38.175Z,83.92
2023-02-27T04:24:54.507Z,84.13
2023-02-27T04:27:18.346Z,84.51
2023-02-27T04:29:39.849Z,83.98
2023-02-27T04:32:00.990Z,83.98
2023-02-27T04:34:18.416Z,84.63
2023-02-27T04:36:56.327Z,84.19
2023-02-27T04:39:09.375Z,84.51
2023-02-27T04:41:21.274Z,84.01
2023-02-27T04:43:24.759Z,84.19
2023-02-27T04:45:28.660Z,83.98
2023-02-27T04:47:36.649Z,84.55
2023-02-27T04:49:45.746Z,84.34
2023-02-27T04:52:00.886Z,83.94
2023-02-27T04:54:12.278Z,83.81
2023-02-27T04:56:19.666Z,84.07
2023-02-27T04:58:27.411Z,84.17
2023-02-27T05:00:31.833Z,83.80
2023-02-27T05:02:37.800Z,84.61
2023-02-27T05:04:43.654Z,84.01
2023-02-27T05:06:48.409Z,83.94
2023-02-27T05:09:08.019Z,84.04
2023-02-27T05:11:18.304Z,84.51
2023-02-27T05:13:30.740Z,84.65
2023-02-27T05:15:54.594Z,84.63
2023-02-27T05:18:06.466Z,84.57
2023-02-27T05:20:09.172Z,84.30
2023-02-27T05:22:35.193Z,84.66
2023-02-27T05:24:41.781Z,84.20
2023-02-27T05:27:07.750Z,84.82
2023-02-27T05:29:23.765Z,84.24
2023-02-27T05:32:00.503Z,83.96
2023-02-27T05:34:23.041Z,84.33
2023-02-27T05:36:39.976Z,84.42
2023-02-27T05:38:55.739Z,84.01
2023-02-27T05:41:03.534Z,84.65
2023-02-27T05:43:10.874Z,84.92
2023-02-27T05:45:22.334Z,84.44
2023-02-27T05:47:30.369Z,84.51
2023-02-27T05:49:43.078Z,85.09
2023-02-27T05:51:48.123Z,84.69
2023-02-27T05:53:57.603Z,85.04
2023-02-27T05:56:04.373Z,85.23
2023-02-27T05:58:09.811Z,84.78
2023-02-27T06:00:18.194Z,84.66
2023-02-27T06:02:19.781Z,84.42
2023-02-27T06:04:21.469Z,84.88
2023-02-27T06:06:23.215Z,84.86
2023-02-27T06:08:25.345Z,84.96
2023-02-27T06:10:27.002Z,85.12
2023-02-27T06:12:28.471Z,85.05
2023-02-27T06:14:29.972Z,85.06
2023-02-27T06:16:31.551Z,85.46
2023-02-27T06:18:33.115Z,85.86
2023-02-27T06:20:34.611Z,85.80
2023-02-27T06:22:36.152Z,86.47
2023-02-27T06:24:37.769Z,86.38
2023-02-27T06:26:39.265Z,86.11
2023-02-27T06:28:42.280Z,86.58
2023-02-27T06:30:46.199Z,86.50
2023-02-27T06:32:47.963Z,85.98
2023-02-27T06:34:49.591Z,85.75
2023-02-27T06:36:51.110Z,86.33
2023-02-27T06:38:52.572Z,86.17
2023-02-27T06:40:54.124Z,86.02
2023-02-27T06:42:55.618Z,87.02
2023-02-27T06:44:57.070Z,86.98
2023-02-27T06:46:58.538Z,86.25
2023-02-27T06:49:00.022Z,86.98
2023-02-27T06:51:01.470Z,87.06
2023-02-27T06:53:03.178Z,86.69
2023-02-27T06:55:06.741Z,87.31
2023-02-27T06:57:08.437Z,86.82
2023-02-27T06:59:09.932Z,87.31
2023-02-27T07:01:12.218Z,87.41
2023-02-27T07:03:14.018Z,87.33
2023-02-27T07:05:15.651Z,87.42
2023-02-27T07:07:33.939Z,88.10
2023-02-27T07:09:38.033Z,87.92
2023-02-27T07:11:39.488Z,88.87
2023-02-27T07:13:40.943Z,88.50
2023-02-27T07:15:42.546Z,89.35
2023-02-27T07:17:44.001Z,89.35
2023-02-27T07:19:45.564Z,89.47
2023-02-27T07:21:47.066Z,90.11
2023-02-27T07:23:48.585Z,90.01
2023-02-27T07:25:50.776Z,90.43
2023-02-27T07:27:52.323Z,90.70
2023-02-27T07:29:54.052Z,91.02
2023-02-27T07:31:55.557Z,91.49
2023-02-27T07:33:57.263Z,91.75
2023-02-27T07:35:58.758Z,91.69
2023-02-27T07:38:00.253Z,92.12
2023-02-27T07:40:01.824Z,92.50
2023-02-27T07:42:03.458Z,92.54
2023-02-27T07:44:06.964Z,92.77
2023-02-27T07:46:08.464Z,93.26
2023-02-27T07:48:10.817Z,93.57
2023-02-27T07:50:14.099Z,93.95
2023-02-27T07:52:15.533Z,93.67
2023-02-27T07:54:17.184Z,94.25
2023-02-27T07:56:18.684Z,94.48
2023-02-27T07:58:20.181Z,94.76
2023-02-27T08:00:22.291Z,95.13
2023-02-27T08:02:23.869Z,95.14
2023-02-27T08:04:25.471Z,95.03
2023-02-27T08:06:27.182Z,95.24
2023-02-27T08:08:29.603Z,94.73
2023-02-27T08:10:31.087Z,93.36
2023-02-27T08:12:32.649Z,90.74
2023-02-27T08:14:34.269Z,89.48
2023-02-27T08:16:35.860Z,88.15
2023-02-27T08:18:37.398Z,86.82
2023-02-27T08:20:38.842Z,86.36
2023-02-27T08:22:41.432Z,85.49
2023-02-27T08:24:43.021Z,84.64
2023-02-27T08:26:44.517Z,82.39
2023-02-27T08:28:46.014Z,81.23
2023-02-27T08:30:48.994Z,80.91
2023-02-27T08:32:50.475Z,79.90
2023-02-27T08:34:52.650Z,79.21
2023-02-27T08:36:54.438Z,78.90
2023-02-27T08:38:56.007Z,79.37
2023-02-27T08:40:57.526Z,78.92
2023-02-27T08:42:58.992Z,76.80
2023-02-27T08:45:00.664Z,76.54
2023-02-27T08:47:02.143Z,76.33
2023-02-27T08:49:03.699Z,75.78
2023-02-27T08:51:05.293Z,75.07
2023-02-27T08:53:06.736Z,74.73
2023-02-27T08:55:08.916Z,74.62
2023-02-27T08:57:10.360Z,74.22
2023-02-27T08:59:11.834Z,74.42
2023-02-27T09:01:13.334Z,74.68
2023-02-27T09:03:15.113Z,74.17
2023-02-27T09:05:16.946Z,74.31
2023-02-27T09:07:18.526Z,74.55
2023-02-27T09:09:23.592Z,74.12
2023-02-27T09:11:25.918Z,74.31
2023-02-27T09:13:28.508Z,73.89
2023-02-27T09:15:31.794Z,73.97
2023-02-27T09:17:33.494Z,74.46
2023-02-27T09:19:35.014Z,74.63
2023-02-27T09:21:37.334Z,75.19
2023-02-27T09:23:39.429Z,74.35
2023-02-27T09:25:40.878Z,73.94
2023-02-27T09:27:42.327Z,73.83
2023-02-27T09:29:43.804Z,73.61
2023-02-27T09:31:45.745Z,73.80
2023-02-27T09:33:47.336Z,74.19
2023-02-27T09:35:48.801Z,73.93
2023-02-27T09:37:50.297Z,74.20
2023-02-27T09:39:51.819Z,73.65
2023-02-27T09:41:59.450Z,74.74
2023-02-27T09:44:01.710Z,75.89
2023-02-27T09:46:05.484Z,76.19
2023-02-27T09:48:34.419Z,74.78
2023-02-27T09:50:37.108Z,73.97
2023-02-27T09:52:39.530Z,74.58
2023-02-27T09:54:43.106Z,74.77
2023-02-27T09:56:52.290Z,74.72
2023-02-27T09:59:29.128Z,74.41
2023-02-27T10:01:40.246Z,73.99
2023-02-27T10:03:59.740Z,73.84
2023-02-27T10:06:07.440Z,74.05
2023-02-27T10:08:21.978Z,74.03
2023-02-27T10:10:35.799Z,73.75
2023-02-27T10:12:54.691Z,73.97
2023-02-27T10:15:09.971Z,73.85
2023-02-27T10:17:34.863Z,73.68
2023-02-27T10:19:38.446Z,73.70
2023-02-27T10:21:44.661Z,74.06
2023-02-27T10:23:56.443Z,73.72
2023-02-27T10:25:58.736Z,73.66
2023-02-27T10:28:16.403Z,73.56
2023-02-27T10:30:34.698Z,73.91
2023-02-27T10:32:39.747Z,73.93
2023-02-27T10:34:43.829Z,74.14
2023-02-27T10:36:46.687Z,74.20
2023-02-27T10:38:54.205Z,74.39
2023-02-27T10:40:58.748Z,74.17
2023-02-27T10:43:03.233Z,73.96
2023-02-27T10:45:06.216Z,73.82
2023-02-27T10:47:15.346Z,73.86
2023-02-27T10:49:19.919Z,73.54
2023-02-27T10:51:26.336Z,73.23
2023-02-27T10:53:28.252Z,73.02
2023-02-27T10:55:32.482Z,72.97
2023-02-27T10:57:42.916Z,72.71
2023-02-27T10:59:52.829Z,72.72
2023-02-27T11:01:59.546Z,73.15
2023-02-27T11:04:01.188Z,72.93
2023-02-27T11:06:23.610Z,73.06
2023-02-27T11:08:28.582Z,73.21
2023-02-27T11:10:30.113Z,73.05
2023-02-27T11:12:34.082Z,72.76
2023-02-27T11:14:35.526Z,73.01
2023-02-27T11:16:50.608Z,72.92
2023-02-27T11:18:54.354Z,72.46
2023-02-27T11:21:14.239Z,70.63
2023-02-27T11:23:21.812Z,70.75
2023-02-27T11:25:25.525Z,70.51
2023-02-27T11:27:29.636Z,68.86
2023-02-27T11:29:33.555Z,65.93
2023-02-27T11:31:37.811Z,66.05
2023-02-27T11:33:47.930Z,69.03
2023-02-27T11:35:57.452Z,72.76
2023-02-27T11:38:07.081Z,73.21
2023-02-27T11:40:14.263Z,71.52
2023-02-27T11:42:26.108Z,71.48
2023-02-27T11:44:49.637Z,69.52
2023-02-27T11:46:51.015Z,68.14
2023-02-27T11:49:19.839Z,69.02
2023-02-27T11:51:56.630Z,69.49
2023-02-27T11:54:34.632Z,69.28
2023-02-27T11:56:41.627Z,68.92
2023-02-27T11:59:05.720Z,68.38
2023-02-27T12:01:15.194Z,68.84
2023-02-27T12:03:22.608Z,68.36
2023-02-27T12:05:36.334Z,69.48
2023-02-27T12:08:24.127Z,68.23
2023-02-27T12:10:29.768Z,68.69
2023-02-27T12:12:41.491Z,67.34
2023-02-27T12:14:50.445Z,65.99
2023-02-27T12:17:01.494Z,65.11
2023-02-27T12:19:11.633Z,63.83
2023-02-27T12:21:32.268Z,65.14
2023-02-27T12:23:50.131Z,64.09
2023-02-27T12:25:57.032Z,65.05
2023-02-27T12:28:09.198Z,63.88
2023-02-27T12:30:24.284Z,63.64
2023-02-27T12:32:25.972Z,63.54
2023-02-27T12:34:38.383Z,64.70
2023-02-27T12:36:39.865Z,64.79
2023-02-27T12:38:41.910Z,63.54
2023-02-27T12:40:51.962Z,62.86
2023-02-27T12:43:16.374Z,64.46
2023-02-27T12:45:44.174Z,66.08
2023-02-27T12:48:16.109Z,66.54
2023-02-27T12:50:20.651Z,65.15
2023-02-27T12:52:45.427Z,63.07
2023-02-27T12:55:23.486Z,62.63
2023-02-27T12:57:49.984Z,60.76
2023-02-27T13:00:29.795Z,62.59
2023-02-27T13:02:50.204Z,61.63
2023-02-27T13:05:02.548Z,61.21
2023-02-27T13:07:12.141Z,61.50
2023-02-27T13:09:38.252Z,62.31
2023-02-27T13:11:48.810Z,62.20
2023-02-27T13:13:59.286Z,62.99
2023-02-27T13:16:09.524Z,63.32
2023-02-27T13:18:28.018Z,61.13
2023-02-27T13:20:49.995Z,60.79
2023-02-27T13:23:27.680Z,60.33
2023-02-27T13:25:32.342Z,59.82
2023-02-27T13:27:45.385Z,60.02
2023-02-27T13:30:13.972Z,61.72
2023-02-27T13:32:41.239Z,62.53
2023-02-27T13:35:00.578Z,64.47
2023-02-27T13:37:04.994Z,64.55
2023-02-27T13:39:52.830Z,64.42
2023-02-27T13:41:54.349Z,64.78
2023-02-27T13:44:20.022Z,64.56
2023-02-27T13:46:30.325Z,64.54
2023-02-27T13:48:46.345Z,66.27
2023-02-27T13:50:50.483Z,61.70
2023-02-27T13:52:52.820Z,59.31
2023-02-27T13:54:57.257Z,65.64
2023-02-27T13:57:07.192Z,66.23
2023-02-27T13:59:19.372Z,67.87
2023-02-27T14:01:27.506Z,67.82
2023-02-27T14:03:32.317Z,67.05
2023-02-27T14:05:43.265Z,66.67
2023-02-27T14:07:53.982Z,65.98
2023-02-27T14:10:03.180Z,66.76
2023-02-27T14:12:20.450Z,66.45
2023-02-27T14:14:36.356Z,65.54
2023-02-27T14:16:37.925Z,65.75
2023-02-27T14:18:54.889Z,66.67
2023-02-27T14:20:56.348Z,67.14
2023-02-27T14:23:21.920Z,68.04
2023-02-27T14:25:30.504Z,68.23
2023-02-27T14:27:44.028Z,68.51
2023-02-27T14:29:47.887Z,68.95
2023-02-27T14:31:51.249Z,68.64
2023-02-27T14:33:55.873Z,68.09
2023-02-27T14:36:03.693Z,68.01
2023-02-27T14:38:10.856Z,67.10
2023-02-27T14:40:30.051Z,67.12
2023-02-27T14:43:05.217Z,67.46
2023-02-27T14:45:24.316Z,67.92
2023-02-27T14:47:36.788Z,67.67
2023-02-27T14:49:38.324Z,67.76
2023-02-27T14:51:39.894Z,67.61
2023-02-27T14:53:41.645Z,68.11
2023-02-27T14:55:53.792Z,68.50
2023-02-27T14:57:57.290Z,69.43
2023-02-27T14:59:58.777Z,68.59
2023-02-27T15:02:04.168Z,68.52
2023-02-27T15:04:08.472Z,67.86
2023-02-27T15:06:19.748Z,68.39
2023-02-27T15:08:25.252Z,68.46
2023-02-27T15:10:33.369Z,68.77
2023-02-27T15:12:39.437Z,67.89
2023-02-27T15:14:41.833Z,67.76
2023-02-27T15:16:44.680Z,67.10
2023-02-27T15:19:12.077Z,65.43
2023-02-27T15:21:15.254Z,66.29
2023-02-27T15:23:28.479Z,65.64
2023-02-27T15:25:31.334Z,66.72
2023-02-27T15:27:37.118Z,67.47
2023-02-27T15:29:42.229Z,66.82
2023-02-27T15:31:46.343Z,67.46
2023-02-27T15:33:48.868Z,68.05
2023-02-27T15:35:51.717Z,68.08
2023-02-27T15:37:56.658Z,68.82
2023-02-27T15:40:00.182Z,69.11
2023-02-27T15:42:04.288Z,68.05
2023-02-27T15:44:06.023Z,68.42
2023-02-27T15:46:07.763Z,68.75
2023-02-27T15:48:14.221Z,69.03
2023-02-27T15:50:15.630Z,69.76
2023-02-27T15:52:23.227Z,69.19
2023-02-27T15:54:25.058Z,70.33
2023-02-27T15:56:33.362Z,70.99
2023-02-27T15:58:38.183Z,71.18
2023-02-27T16:00:39.730Z,71.78
2023-02-27T16:02:52.900Z,72.32
2023-02-27T16:04:54.666Z,72.93
2023-02-27T16:07:14.827Z,72.75
2023-02-27T16:09:24.482Z,73.86
2023-02-27T16:11:30.071Z,74.35
2023-02-27T16:13:37.097Z,74.43
2023-02-27T16:15:40.180Z,74.98
2023-02-27T16:17:59.285Z,75.43
2023-02-27T16:20:21.537Z,75.66
2023-02-27T16:22:23.615Z,76.43
2023-02-27T16:24:31.417Z,76.04
2023-02-27T16:26:36.804Z,76.40
2023-02-27T16:28:53.579Z,76.17
2023-02-27T16:30:55.334Z,76.61
2023-02-27T16:33:00.313Z,76.58
2023-02-27T16:35:18.011Z,76.65
2023-02-27T16:37:27.731Z,77.14
2023-02-27T16:39:29.907Z,77.38
2023-02-27T16:41:31.472Z,76.89
2023-02-27T16:43:33.669Z,77.11
2023-02-27T16:45:35.318Z,77.83
2023-02-27T16:47:36.855Z,77.56
2023-02-27T16:49:40.336Z,77.75
2023-02-27T16:51:41.809Z,78.34
2023-02-27T16:53:44.722Z,77.53
2023-02-27T16:55:46.216Z,77.80
2023-02-27T16:57:47.786Z,77.78
2023-02-27T16:59:49.227Z,77.76
2023-02-27T17:01:50.690Z,77.06
2023-02-27T17:03:53.106Z,77.47
2023-02-27T17:05:54.620Z,77.85
2023-02-27T17:07:56.115Z,77.56
2023-02-27T17:09:57.913Z,77.83
2023-02-27T17:11:59.396Z,77.39
2023-02-27T17:14:00.859Z,78.02
2023-02-27T17:16:04.138Z,78.18
2023-02-27T17:18:05.650Z,78.62
2023-02-27T17:20:08.101Z,78.51
2023-02-27T17:22:09.604Z,78.74
2023-02-27T17:24:11.102Z,78.83
2023-02-27T17:26:13.190Z,78.62
2023-02-27T17:28:14.725Z,78.52
2023-02-27T17:30:16.934Z,78.83
2023-02-27T17:32:18.441Z,79.34
2023-02-27T17:34:20.010Z,79.28
2023-02-27T17:36:22.596Z,78.65
2023-02-27T17:38:24.059Z,78.98
2023-02-27T17:40:26.451Z,78.87
2023-02-27T17:42:27.884Z,78.34
2023-02-27T17:44:29.428Z,77.84
2023-02-27T17:46:31.742Z,78.10
2023-02-27T17:48:33.648Z,78.67
2023-02-27T17:50:35.358Z,79.48
2023-02-27T17:52:37.422Z,79.40
2023-02-27T17:54:39.147Z,79.32
2023-02-27T17:56:40.637Z,78.72
2023-02-27T17:58:45.372Z,78.82
2023-02-27T18:00:46.949Z,78.31
2023-02-27T18:02:48.482Z,78.53
2023-02-27T18:04:50.374Z,78.95
2023-02-27T18:06:52.080Z,78.59
2023-02-27T18:08:53.584Z,79.16
2023-02-27T18:10:55.413Z,78.81
2023-02-27T18:12:56.866Z,79.72
2023-02-27T18:14:58.337Z,79.48
2023-02-27T18:16:59.915Z,79.99
2023-02-27T18:19:06.108Z,79.73
2023-02-27T18:21:14.211Z,79.50
2023-02-27T18:23:15.794Z,79.67
2023-02-27T18:25:17.290Z,80.56
2023-02-27T18:27:18.737Z,80.06
2023-02-27T18:29:20.231Z,79.57
2023-02-27T18:31:24.696Z,79.57
2023-02-27T18:33:27.421Z,80.36
2023-02-27T18:35:29.112Z,80.53
2023-02-27T18:37:30.599Z,79.18
2023-02-27T18:39:32.092Z,78.75
2023-02-27T18:41:33.886Z,79.09
2023-02-27T18:43:36.876Z,80.01
2023-02-27T18:45:38.586Z,80.30
2023-02-27T18:47:40.085Z,81.01
2023-02-27T18:49:41.670Z,81.29
2023-02-27T18:51:44.192Z,81.50
2023-02-27T18:53:48.088Z,81.61
2023-02-27T18:55:49.583Z,81.79
2023-02-27T18:57:51.123Z,81.79
2023-02-27T18:59:53.646Z,81.62
2023-02-27T19:01:55.240Z,81.61
2023-02-27T19:04:03.468Z,81.92
2023-02-27T19:06:05.336Z,82.07
2023-02-27T19:08:06.821Z,82.13
2023-02-27T19:10:09.800Z,82.38
2023-02-27T19:12:11.324Z,82.37
2023-02-27T19:14:15.863Z,82.80
2023-02-27T19:16:17.498Z,82.90
2023-02-27T19:18:19.351Z,82.87
2023-02-27T19:20:20.807Z,83.17
2023-02-27T19:22:22.398Z,83.25
2023-02-27T19:24:24.048Z,83.37
2023-02-27T19:26:25.770Z,83.53
2023-02-27T19:28:27.637Z,83.52
2023-02-27T19:30:29.292Z,83.73
2023-02-27T19:32:31.443Z,83.84
2023-02-27T19:34:33.665Z,83.66
2023-02-27T19:36:35.149Z,83.58
2023-02-27T19:38:37.350Z,83.61
2023-02-27T19:40:38.807Z,83.52
2023-02-27T19:42:40.860Z,83.55
2023-02-27T19:44:43.167Z,83.77
2023-02-27T19:46:46.835Z,83.12
2023-02-27T19:48:48.428Z,83.52
2023-02-27T19:50:50.016Z,83.29
2023-02-27T19:52:52.192Z,83.33
2023-02-27T19:54:54.322Z,82.90
2023-02-27T19:56:56.077Z,82.81
2023-02-27T19:58:57.841Z,82.88
2023-02-27T20:00:59.807Z,82.94
2023-02-27T20:03:01.389Z,82.92
2023-02-27T20:05:03.173Z,82.80
2023-02-27T20:07:04.711Z,82.75
2023-02-27T20:09:06.200Z,82.54
2023-02-27T20:11:07.770Z,82.70
2023-02-27T20:13:09.552Z,82.60
2023-02-27T20:15:11.741Z,82.26
2023-02-27T20:17:14.253Z,82.06
2023-02-27T20:19:18.040Z,82.15
2023-02-27T20:21:24.385Z,81.79
2023-02-27T20:23:26.078Z,81.85
2023-02-27T20:25:29.380Z,81.81
2023-02-27T20:27:30.912Z,81.64
2023-02-27T20:29:32.689Z,81.66
2023-02-27T20:31:36.181Z,81.09
2023-02-27T20:33:37.724Z,81.05
2023-02-27T20:35:40.075Z,80.90
2023-02-27T20:37:41.567Z,80.89
2023-02-27T20:39:45.162Z,80.51
2023-02-27T20:41:47.725Z,80.22
2023-02-27T20:43:49.886Z,80.18
2023-02-27T20:45:51.512Z,79.77
2023-02-27T20:47:53.678Z,80.22
2023-02-27T20:49:55.194Z,79.92
2023-02-27T20:51:58.543Z,79.66
2023-02-27T20:54:00.168Z,79.92
2023-02-27T20:56:02.266Z,79.54
2023-02-27T20:58:03.801Z,79.35
2023-02-27T21:00:05.899Z,79.21
2023-02-27T21:02:09.266Z,79.21
2023-02-27T21:04:10.884Z,79.01
2023-02-27T21:06:15.427Z,78.82
2023-02-27T21:08:17.821Z,78.24
2023-02-27T21:10:19.283Z,78.20
2023-02-27T21:12:20.750Z,78.10
2023-02-27T21:14:22.248Z,78.27
2023-02-27T21:16:25.634Z,78.13
2023-02-27T21:18:27.091Z,78.05
2023-02-27T21:20:28.559Z,77.93
2023-02-27T21:22:30.023Z,78.00
2023-02-27T21:24:32.433Z,78.20
2023-02-27T21:26:37.998Z,77.91
2023-02-27T21:28:47.598Z,78.54
2023-02-27T21:30:54.597Z,78.15
2023-02-27T21:32:57.745Z,78.23
2023-02-27T21:34:59.190Z,78.38
2023-02-27T21:37:02.034Z,78.66
2023-02-27T21:39:08.053Z,78.73
2023-02-27T21:41:12.569Z,78.53
2023-02-27T21:43:14.069Z,78.59
2023-02-27T21:45:15.652Z,78.57
2023-02-27T21:47:17.400Z,78.69
2023-02-27T21:49:22.678Z,78.69
2023-02-27T21:51:38.895Z,78.53
2023-02-27T21:53:42.041Z,78.49
2023-02-27T21:55:43.494Z,78.70
2023-02-27T21:57:44.994Z,78.83
2023-02-27T21:59:46.547Z,79.11
2023-02-27T22:01:48.898Z,78.58
2023-02-27T22:03:53.640Z,78.94
2023-02-27T22:05:55.077Z,78.90
2023-02-27T22:07:56.563Z,78.87
2023-02-27T22:09:58.020Z,78.85
2023-02-27T22:11:59.491Z,78.89
2023-02-27T22:14:01.039Z,79.23
2023-02-27T22:16:10.224Z,78.92
2023-02-27T22:18:11.720Z,78.94
2023-02-27T22:20:13.294Z,79.34
2023-02-27T22:22:14.785Z,79.45
2023-02-27T22:24:16.346Z,79.69
2023-02-27T22:26:21.303Z,79.54
2023-02-27T22:28:23.063Z,79.95
2023-02-27T22:30:24.518Z,79.94
2023-02-27T22:32:26.087Z,80.27
2023-02-27T22:34:27.633Z,80.58
2023-02-27T22:36:30.792Z,80.61
2023-02-27T22:38:32.302Z,80.68
2023-02-27T22:40:36.108Z,80.39
2023-02-27T22:42:37.684Z,80.49
2023-02-27T22:44:39.121Z,80.36
2023-02-27T22:46:47.044Z,80.45
2023-02-27T22:48:48.767Z,80.42
2023-02-27T22:51:05.857Z,80.14
2023-02-27T22:53:07.365Z,80.87
2023-02-27T22:55:09.112Z,80.52
2023-02-27T22:57:10.672Z,80.88
2023-02-27T22:59:12.255Z,80.62
2023-02-27T23:01:20.690Z,80.90
2023-02-27T23:03:22.282Z,80.74
2023-02-27T23:05:23.770Z,80.82
2023-02-27T23:07:25.259Z,80.71
2023-02-27T23:09:27.324Z,80.88
2023-02-27T23:11:29.241Z,80.27
2023-02-27T23:13:32.155Z,80.17
2023-02-27T23:15:35.260Z,80.12
2023-02-27T23:17:43.564Z,80.00
2023-02-27T23:19:50.790Z,79.83
2023-02-27T23:21:52.298Z,79.53
2023-02-27T23:23:53.909Z,79.62
2023-02-27T23:25:55.424Z,79.99
2023-02-27T23:27:56.897Z,79.40
2023-02-27T23:29:58.391Z,79.52
2023-02-27T23:31:59.920Z,79.71
2023-02-27T23:34:01.960Z,79.61
2023-02-27T23:36:04.221Z,79.36
2023-02-27T23:38:05.709Z,79.06
2023-02-27T23:40:08.065Z,79.46
2023-02-27T23:42:09.512Z,79.08
2023-02-27T23:44:11.006Z,79.53
2023-02-27T23:46:16.263Z,79.04
2023-02-27T23:48:18.209Z,79.43
2023-02-27T23:50:22.380Z,79.68
2023-02-27T23:52:23.840Z,79.84
2023-02-27T23:54:25.380Z,80.08
2023-02-27T23:56:29.454Z,79.87
2023-02-27T23:58:30.984Z,80.02
